sensor_id;sensor_type;location;lat;lon;timestamp;temperature;humidity
2867;DHT22;1441;48.886;8.728;2023-02-08T00:01:59;-1.50;86.20
2867;DHT22;1441;48.886;8.728;2023-02-08T00:04:25;-1.40;86.20
2867;DHT22;1441;48.886;8.728;2023-02-08T00:06:50;-1.40;86.10
2867;DHT22;1441;48.886;8.728;2023-02-08T00:09:16;-1.50;86.10
2867;DHT22;1441;48.886;8.728;2023-02-08T00:11:41;-1.50;86.40
2867;DHT22;1441;48.886;8.728;2023-02-08T00:14:07;-1.60;87.00
2867;DHT22;1441;48.886;8.728;2023-02-08T00:16:33;-1.80;88.10
2867;DHT22;1441;48.886;8.728;2023-02-08T00:18:58;-1.80;88.50
2867;DHT22;1441;48.886;8.728;2023-02-08T00:21:24;-1.90;89.30
2867;DHT22;1441;48.886;8.728;2023-02-08T00:23:50;-2.00;89.80
2867;DHT22;1441;48.886;8.728;2023-02-08T00:26:16;-2.10;90.20
2867;DHT22;1441;48.886;8.728;2023-02-08T00:28:41;-2.00;89.70
2867;DHT22;1441;48.886;8.728;2023-02-08T00:31:07;-2.10;89.70
2867;DHT22;1441;48.886;8.728;2023-02-08T00:33:32;-2.10;89.80
2867;DHT22;1441;48.886;8.728;2023-02-08T00:35:59;-2.20;90.00
2867;DHT22;1441;48.886;8.728;2023-02-08T00:38:26;-2.30;90.10
2867;DHT22;1441;48.886;8.728;2023-02-08T00:40:52;-2.30;90.70
2867;DHT22;1441;48.886;8.728;2023-02-08T00:43:17;-2.30;91.10
2867;DHT22;1441;48.886;8.728;2023-02-08T00:45:43;-2.40;91.10
2867;DHT22;1441;48.886;8.728;2023-02-08T00:48:08;-2.40;92.20
2867;DHT22;1441;48.886;8.728;2023-02-08T00:50:34;-2.40;92.50
2867;DHT22;1441;48.886;8.728;2023-02-08T00:52:59;-2.40;92.80
2867;DHT22;1441;48.886;8.728;2023-02-08T00:55:25;-2.40;93.30
2867;DHT22;1441;48.886;8.728;2023-02-08T00:57:50;-2.50;92.50
2867;DHT22;1441;48.886;8.728;2023-02-08T01:00:16;-2.50;91.80
2867;DHT22;1441;48.886;8.728;2023-02-08T01:02:42;-2.40;91.40
2867;DHT22;1441;48.886;8.728;2023-02-08T01:05:07;-2.20;91.00
2867;DHT22;1441;48.886;8.728;2023-02-08T01:07:35;-2.20;90.40
2867;DHT22;1441;48.886;8.728;2023-02-08T01:10:01;-2.20;90.70
2867;DHT22;1441;48.886;8.728;2023-02-08T01:12:27;-2.20;90.30
2867;DHT22;1441;48.886;8.728;2023-02-08T01:14:53;-2.30;90.40
2867;DHT22;1441;48.886;8.728;2023-02-08T01:17:18;-2.40;90.70
2867;DHT22;1441;48.886;8.728;2023-02-08T01:19:44;-2.20;90.40
2867;DHT22;1441;48.886;8.728;2023-02-08T01:22:09;-2.10;88.80
2867;DHT22;1441;48.886;8.728;2023-02-08T01:24:35;-2.20;88.70
2867;DHT22;1441;48.886;8.728;2023-02-08T01:27:00;-2.20;88.50
2867;DHT22;1441;48.886;8.728;2023-02-08T01:29:26;-2.20;88.50
2867;DHT22;1441;48.886;8.728;2023-02-08T01:31:52;-2.10;87.90
2867;DHT22;1441;48.886;8.728;2023-02-08T01:34:17;-2.10;88.00
2867;DHT22;1441;48.886;8.728;2023-02-08T01:36:43;-2.20;87.70
2867;DHT22;1441;48.886;8.728;2023-02-08T01:39:09;-2.20;87.30
2867;DHT22;1441;48.886;8.728;2023-02-08T01:41:38;-2.20;86.90
2867;DHT22;1441;48.886;8.728;2023-02-08T01:46:39;-2.60;89.20
2867;DHT22;1441;48.886;8.728;2023-02-08T01:49:14;-2.70;89.40
2867;DHT22;1441;48.886;8.728;2023-02-08T01:51:49;-2.80;89.00
2867;DHT22;1441;48.886;8.728;2023-02-08T01:54:18;-2.60;88.00
2867;DHT22;1441;48.886;8.728;2023-02-08T01:56:46;-2.40;86.40
2867;DHT22;1441;48.886;8.728;2023-02-08T01:59:28;-2.30;85.20
2867;DHT22;1441;48.886;8.728;2023-02-08T02:01:56;-2.30;85.00
2867;DHT22;1441;48.886;8.728;2023-02-08T02:04:22;-2.30;85.20
2867;DHT22;1441;48.886;8.728;2023-02-08T02:06:53;-2.40;85.20
2867;DHT22;1441;48.886;8.728;2023-02-08T02:09:35;-2.30;84.20
2867;DHT22;1441;48.886;8.728;2023-02-08T02:12:02;-2.40;85.60
2867;DHT22;1441;48.886;8.728;2023-02-08T02:14:30;-2.60;86.80
2867;DHT22;1441;48.886;8.728;2023-02-08T02:16:58;-2.70;87.10
2867;DHT22;1441;48.886;8.728;2023-02-08T02:41:59;-2.90;87.40
2867;DHT22;1441;48.886;8.728;2023-02-08T02:45:13;-2.80;86.50
2867;DHT22;1441;48.886;8.728;2023-02-08T02:47:58;-2.90;88.40
2867;DHT22;1441;48.886;8.728;2023-02-08T02:50:48;-3.00;89.70
2867;DHT22;1441;48.886;8.728;2023-02-08T02:53:21;-3.00;91.50
2867;DHT22;1441;48.886;8.728;2023-02-08T02:55:54;-3.10;92.40
2867;DHT22;1441;48.886;8.728;2023-02-08T02:58:22;-3.10;91.00
2867;DHT22;1441;48.886;8.728;2023-02-08T03:00:57;-3.10;89.50
2867;DHT22;1441;48.886;8.728;2023-02-08T03:03:25;-2.90;88.20
2867;DHT22;1441;48.886;8.728;2023-02-08T03:05:53;-2.70;86.40
2867;DHT22;1441;48.886;8.728;2023-02-08T03:11:24;-2.50;84.60
2867;DHT22;1441;48.886;8.728;2023-02-08T03:14:08;-2.60;84.80
2867;DHT22;1441;48.886;8.728;2023-02-08T03:24:58;-2.70;85.60
2867;DHT22;1441;48.886;8.728;2023-02-08T03:27:36;-3.00;87.10
2867;DHT22;1441;48.886;8.728;2023-02-08T03:30:19;-3.20;88.10
2867;DHT22;1441;48.886;8.728;2023-02-08T03:32:58;-3.30;88.30
2867;DHT22;1441;48.886;8.728;2023-02-08T03:35:35;-3.40;89.20
2867;DHT22;1441;48.886;8.728;2023-02-08T03:38:15;-3.40;89.50
2867;DHT22;1441;48.886;8.728;2023-02-08T03:40:47;-3.40;89.40
2867;DHT22;1441;48.886;8.728;2023-02-08T03:43:37;-3.40;88.90
2867;DHT22;1441;48.886;8.728;2023-02-08T03:46:19;-3.50;89.10
2867;DHT22;1441;48.886;8.728;2023-02-08T03:48:59;-3.50;89.80
2867;DHT22;1441;48.886;8.728;2023-02-08T03:51:27;-3.50;89.60
2867;DHT22;1441;48.886;8.728;2023-02-08T03:53:57;-3.50;89.30
2867;DHT22;1441;48.886;8.728;2023-02-08T03:56:45;-3.50;89.20
2867;DHT22;1441;48.886;8.728;2023-02-08T03:59:22;-3.50;89.30
2867;DHT22;1441;48.886;8.728;2023-02-08T04:01:55;-3.30;88.30
2867;DHT22;1441;48.886;8.728;2023-02-08T04:04:23;-3.30;88.40
2867;DHT22;1441;48.886;8.728;2023-02-08T04:06:51;-3.40;89.00
2867;DHT22;1441;48.886;8.728;2023-02-08T04:09:16;-3.50;89.40
2867;DHT22;1441;48.886;8.728;2023-02-08T04:11:42;-3.50;91.20
2867;DHT22;1441;48.886;8.728;2023-02-08T04:14:07;-3.50;91.00
2867;DHT22;1441;48.886;8.728;2023-02-08T04:16:33;-3.50;91.30
2867;DHT22;1441;48.886;8.728;2023-02-08T04:18:59;-3.60;91.40
2867;DHT22;1441;48.886;8.728;2023-02-08T04:21:24;-3.60;91.10
2867;DHT22;1441;48.886;8.728;2023-02-08T04:23:50;-3.60;90.70
2867;DHT22;1441;48.886;8.728;2023-02-08T04:26:15;-3.70;90.70
2867;DHT22;1441;48.886;8.728;2023-02-08T04:28:41;-3.60;91.40
2867;DHT22;1441;48.886;8.728;2023-02-08T04:31:06;-3.70;90.30
2867;DHT22;1441;48.886;8.728;2023-02-08T04:33:32;-3.70;90.70
2867;DHT22;1441;48.886;8.728;2023-02-08T04:35:57;-3.70;90.10
2867;DHT22;1441;48.886;8.728;2023-02-08T04:38:23;-3.80;90.30
2867;DHT22;1441;48.886;8.728;2023-02-08T04:40:49;-3.80;90.60
2867;DHT22;1441;48.886;8.728;2023-02-08T04:43:14;-3.80;91.20
2867;DHT22;1441;48.886;8.728;2023-02-08T04:45:40;-3.80;90.50
2867;DHT22;1441;48.886;8.728;2023-02-08T04:48:05;-3.80;91.10
2867;DHT22;1441;48.886;8.728;2023-02-08T04:50:32;-3.80;91.20
2867;DHT22;1441;48.886;8.728;2023-02-08T04:52:58;-3.80;90.90
2867;DHT22;1441;48.886;8.728;2023-02-08T04:55:24;-3.90;90.70
2867;DHT22;1441;48.886;8.728;2023-02-08T04:57:49;-3.90;90.90
2867;DHT22;1441;48.886;8.728;2023-02-08T05:00:15;-3.90;91.00
2867;DHT22;1441;48.886;8.728;2023-02-08T05:02:41;-4.00;90.80
2867;DHT22;1441;48.886;8.728;2023-02-08T05:05:07;-4.00;91.60
2867;DHT22;1441;48.886;8.728;2023-02-08T05:07:33;-4.00;91.70
2867;DHT22;1441;48.886;8.728;2023-02-08T05:09:59;-3.90;91.70
2867;DHT22;1441;48.886;8.728;2023-02-08T05:12:25;-3.80;90.80
2867;DHT22;1441;48.886;8.728;2023-02-08T05:14:50;-3.80;90.70
2867;DHT22;1441;48.886;8.728;2023-02-08T05:17:16;-3.90;91.20
2867;DHT22;1441;48.886;8.728;2023-02-08T05:19:41;-4.00;91.30
2867;DHT22;1441;48.886;8.728;2023-02-08T05:22:07;-4.10;91.70
2867;DHT22;1441;48.886;8.728;2023-02-08T05:24:32;-4.00;92.00
2867;DHT22;1441;48.886;8.728;2023-02-08T05:26:58;-4.00;92.30
2867;DHT22;1441;48.886;8.728;2023-02-08T05:29:23;-4.00;91.90
2867;DHT22;1441;48.886;8.728;2023-02-08T05:31:49;-4.00;91.80
2867;DHT22;1441;48.886;8.728;2023-02-08T05:34:15;-4.00;91.70
2867;DHT22;1441;48.886;8.728;2023-02-08T05:36:40;-4.00;91.90
2867;DHT22;1441;48.886;8.728;2023-02-08T05:39:06;-4.00;92.20
2867;DHT22;1441;48.886;8.728;2023-02-08T05:41:31;-3.90;92.10
2867;DHT22;1441;48.886;8.728;2023-02-08T05:43:57;-3.90;91.50
2867;DHT22;1441;48.886;8.728;2023-02-08T05:46:22;-3.90;91.60
2867;DHT22;1441;48.886;8.728;2023-02-08T05:48:48;-4.00;91.80
2867;DHT22;1441;48.886;8.728;2023-02-08T05:51:14;-4.00;92.30
2867;DHT22;1441;48.886;8.728;2023-02-08T05:53:39;-3.90;92.30
2867;DHT22;1441;48.886;8.728;2023-02-08T05:56:05;-3.90;92.40
2867;DHT22;1441;48.886;8.728;2023-02-08T05:58:32;-3.80;91.80
2867;DHT22;1441;48.886;8.728;2023-02-08T06:00:57;-3.60;90.80
2867;DHT22;1441;48.886;8.728;2023-02-08T06:03:23;-3.50;90.20
2867;DHT22;1441;48.886;8.728;2023-02-08T06:05:48;-3.40;89.80
2867;DHT22;1441;48.886;8.728;2023-02-08T06:08:14;-3.40;89.40
2867;DHT22;1441;48.886;8.728;2023-02-08T06:10:41;-3.30;89.10
2867;DHT22;1441;48.886;8.728;2023-02-08T06:13:06;-3.40;89.30
2867;DHT22;1441;48.886;8.728;2023-02-08T06:15:32;-3.50;89.40
2867;DHT22;1441;48.886;8.728;2023-02-08T06:17:57;-3.40;89.60
2867;DHT22;1441;48.886;8.728;2023-02-08T06:20:23;-3.70;90.00
2867;DHT22;1441;48.886;8.728;2023-02-08T06:22:48;-3.90;91.30
2867;DHT22;1441;48.886;8.728;2023-02-08T06:25:14;-4.00;92.10
2867;DHT22;1441;48.886;8.728;2023-02-08T06:27:40;-4.10;92.80
2867;DHT22;1441;48.886;8.728;2023-02-08T06:30:05;-4.10;92.90
2867;DHT22;1441;48.886;8.728;2023-02-08T06:32:31;-4.10;93.20
2867;DHT22;1441;48.886;8.728;2023-02-08T06:34:57;-4.00;93.00
2867;DHT22;1441;48.886;8.728;2023-02-08T06:37:22;-4.00;93.10
2867;DHT22;1441;48.886;8.728;2023-02-08T06:39:48;-4.00;92.90
2867;DHT22;1441;48.886;8.728;2023-02-08T06:42:13;-4.00;92.70
2867;DHT22;1441;48.886;8.728;2023-02-08T06:44:39;-3.90;93.30
2867;DHT22;1441;48.886;8.728;2023-02-08T06:47:05;-3.90;92.60
2867;DHT22;1441;48.886;8.728;2023-02-08T06:49:30;-3.90;92.40
2867;DHT22;1441;48.886;8.728;2023-02-08T06:51:56;-3.70;91.20
2867;DHT22;1441;48.886;8.728;2023-02-08T06:54:21;-3.80;90.60
2867;DHT22;1441;48.886;8.728;2023-02-08T06:56:47;-3.50;90.00
2867;DHT22;1441;48.886;8.728;2023-02-08T06:59:13;-3.40;88.90
2867;DHT22;1441;48.886;8.728;2023-02-08T07:01:39;-3.30;88.50
2867;DHT22;1441;48.886;8.728;2023-02-08T07:04:04;-3.30;88.10
2867;DHT22;1441;48.886;8.728;2023-02-08T07:06:30;-3.40;88.70
2867;DHT22;1441;48.886;8.728;2023-02-08T07:08:56;-3.50;89.00
2867;DHT22;1441;48.886;8.728;2023-02-08T07:11:22;-3.60;89.70
2867;DHT22;1441;48.886;8.728;2023-02-08T07:13:49;-3.70;91.10
2867;DHT22;1441;48.886;8.728;2023-02-08T07:16:16;-3.80;92.00
2867;DHT22;1441;48.886;8.728;2023-02-08T07:18:41;-3.90;91.90
2867;DHT22;1441;48.886;8.728;2023-02-08T07:21:07;-3.90;92.60
2867;DHT22;1441;48.886;8.728;2023-02-08T07:23:33;-3.90;92.10
2867;DHT22;1441;48.886;8.728;2023-02-08T07:26:03;-3.90;92.00
2867;DHT22;1441;48.886;8.728;2023-02-08T07:28:29;-3.90;92.70
2867;DHT22;1441;48.886;8.728;2023-02-08T07:30:55;-3.90;92.30
2867;DHT22;1441;48.886;8.728;2023-02-08T07:33:21;-3.80;91.80
2867;DHT22;1441;48.886;8.728;2023-02-08T07:35:47;-3.70;92.20
2867;DHT22;1441;48.886;8.728;2023-02-08T07:38:13;-3.50;91.20
2867;DHT22;1441;48.886;8.728;2023-02-08T07:40:38;-3.40;91.40
2867;DHT22;1441;48.886;8.728;2023-02-08T07:43:04;-3.00;89.30
2867;DHT22;1441;48.886;8.728;2023-02-08T07:45:30;-2.70;88.20
2867;DHT22;1441;48.886;8.728;2023-02-08T07:47:55;-2.40;87.80
2867;DHT22;1441;48.886;8.728;2023-02-08T07:50:21;-2.10;86.10
2867;DHT22;1441;48.886;8.728;2023-02-08T07:52:47;-1.90;85.40
2867;DHT22;1441;48.886;8.728;2023-02-08T07:55:13;-1.70;84.60
2867;DHT22;1441;48.886;8.728;2023-02-08T07:57:43;-1.50;84.10
2867;DHT22;1441;48.886;8.728;2023-02-08T08:00:10;-1.30;83.30
2867;DHT22;1441;48.886;8.728;2023-02-08T08:02:36;-1.20;82.40
2867;DHT22;1441;48.886;8.728;2023-02-08T08:05:01;-1.10;82.40
2867;DHT22;1441;48.886;8.728;2023-02-08T08:07:27;-1.10;81.90
2867;DHT22;1441;48.886;8.728;2023-02-08T08:09:52;-1.10;81.40
2867;DHT22;1441;48.886;8.728;2023-02-08T08:12:18;-1.00;81.20
2867;DHT22;1441;48.886;8.728;2023-02-08T08:14:43;-1.00;80.70
2867;DHT22;1441;48.886;8.728;2023-02-08T08:17:09;-0.90;80.10
2867;DHT22;1441;48.886;8.728;2023-02-08T08:19:35;-0.80;79.90
2867;DHT22;1441;48.886;8.728;2023-02-08T08:22:00;-0.80;81.20
2867;DHT22;1441;48.886;8.728;2023-02-08T08:24:26;-0.80;81.10
2867;DHT22;1441;48.886;8.728;2023-02-08T08:26:51;-0.60;79.00
2867;DHT22;1441;48.886;8.728;2023-02-08T08:29:17;-0.40;77.90
2867;DHT22;1441;48.886;8.728;2023-02-08T08:31:43;-0.30;77.60
2867;DHT22;1441;48.886;8.728;2023-02-08T08:34:08;-0.30;75.60
2867;DHT22;1441;48.886;8.728;2023-02-08T08:36:34;-0.20;75.50
2867;DHT22;1441;48.886;8.728;2023-02-08T08:39:00;-0.30;74.40
2867;DHT22;1441;48.886;8.728;2023-02-08T08:41:25;-0.40;73.80
2867;DHT22;1441;48.886;8.728;2023-02-08T08:43:53;-0.50;73.80
2867;DHT22;1441;48.886;8.728;2023-02-08T08:46:18;-0.30;74.20
2867;DHT22;1441;48.886;8.728;2023-02-08T08:48:44;-0.20;74.70
2867;DHT22;1441;48.886;8.728;2023-02-08T08:51:11;-0.10;73.40
2867;DHT22;1441;48.886;8.728;2023-02-08T08:53:37;0.10;73.20
2867;DHT22;1441;48.886;8.728;2023-02-08T08:56:03;0.10;73.20
2867;DHT22;1441;48.886;8.728;2023-02-08T08:58:29;0.30;72.70
2867;DHT22;1441;48.886;8.728;2023-02-08T09:00:58;0.20;71.00
2867;DHT22;1441;48.886;8.728;2023-02-08T09:03:25;0.00;68.90
2867;DHT22;1441;48.886;8.728;2023-02-08T09:05:51;0.00;69.50
2867;DHT22;1441;48.886;8.728;2023-02-08T09:08:17;0.10;69.70
2867;DHT22;1441;48.886;8.728;2023-02-08T09:10:43;0.00;68.80
2867;DHT22;1441;48.886;8.728;2023-02-08T09:13:09;0.10;68.40
2867;DHT22;1441;48.886;8.728;2023-02-08T09:15:38;0.10;68.60
2867;DHT22;1441;48.886;8.728;2023-02-08T09:18:04;0.20;70.00
2867;DHT22;1441;48.886;8.728;2023-02-08T09:20:30;0.40;68.90
2867;DHT22;1441;48.886;8.728;2023-02-08T09:22:55;0.40;68.70
2867;DHT22;1441;48.886;8.728;2023-02-08T09:25:21;0.50;68.50
2867;DHT22;1441;48.886;8.728;2023-02-08T09:27:47;0.60;68.00
2867;DHT22;1441;48.886;8.728;2023-02-08T09:30:13;0.60;68.00
2867;DHT22;1441;48.886;8.728;2023-02-08T09:32:38;0.60;67.80
2867;DHT22;1441;48.886;8.728;2023-02-08T09:35:05;0.70;67.50
2867;DHT22;1441;48.886;8.728;2023-02-08T09:37:31;0.80;67.50
2867;DHT22;1441;48.886;8.728;2023-02-08T09:39:57;0.70;67.00
2867;DHT22;1441;48.886;8.728;2023-02-08T09:42:42;0.80;67.20
2867;DHT22;1441;48.886;8.728;2023-02-08T09:47:48;0.80;67.40
2867;DHT22;1441;48.886;8.728;2023-02-08T09:52:57;0.90;67.50
2867;DHT22;1441;48.886;8.728;2023-02-08T09:57:58;1.00;67.10
2867;DHT22;1441;48.886;8.728;2023-02-08T10:00:34;1.10;66.80
2867;DHT22;1441;48.886;8.728;2023-02-08T10:03:01;1.20;66.30
2867;DHT22;1441;48.886;8.728;2023-02-08T10:05:29;1.20;66.20
2867;DHT22;1441;48.886;8.728;2023-02-08T10:07:55;1.20;66.30
2867;DHT22;1441;48.886;8.728;2023-02-08T10:10:45;1.40;66.00
2867;DHT22;1441;48.886;8.728;2023-02-08T10:19:02;1.20;65.60
2867;DHT22;1441;48.886;8.728;2023-02-08T10:33:16;1.60;65.70
2867;DHT22;1441;48.886;8.728;2023-02-08T10:35:45;1.40;65.80
2867;DHT22;1441;48.886;8.728;2023-02-08T10:38:31;1.40;66.20
2867;DHT22;1441;48.886;8.728;2023-02-08T10:41:03;1.40;66.20
2867;DHT22;1441;48.886;8.728;2023-02-08T10:46:24;1.40;65.80
2867;DHT22;1441;48.886;8.728;2023-02-08T10:51:24;1.40;66.60
2867;DHT22;1441;48.886;8.728;2023-02-08T10:53:51;1.50;66.40
2867;DHT22;1441;48.886;8.728;2023-02-08T10:56:43;1.40;65.70
2867;DHT22;1441;48.886;8.728;2023-02-08T10:59:14;1.50;67.30
2867;DHT22;1441;48.886;8.728;2023-02-08T11:01:41;1.70;66.60
2867;DHT22;1441;48.886;8.728;2023-02-08T11:04:10;1.70;65.30
2867;DHT22;1441;48.886;8.728;2023-02-08T11:06:38;1.60;65.90
2867;DHT22;1441;48.886;8.728;2023-02-08T11:09:04;1.60;65.50
2867;DHT22;1441;48.886;8.728;2023-02-08T11:11:37;1.60;65.80
2867;DHT22;1441;48.886;8.728;2023-02-08T11:14:16;1.60;65.70
2867;DHT22;1441;48.886;8.728;2023-02-08T11:16:48;1.80;68.50
2867;DHT22;1441;48.886;8.728;2023-02-08T11:19:40;2.00;68.30
2867;DHT22;1441;48.886;8.728;2023-02-08T11:22:18;2.20;68.30
2867;DHT22;1441;48.886;8.728;2023-02-08T11:24:54;2.30;67.20
2867;DHT22;1441;48.886;8.728;2023-02-08T11:32:47;2.20;66.30
2867;DHT22;1441;48.886;8.728;2023-02-08T11:37:51;2.40;67.00
2867;DHT22;1441;48.886;8.728;2023-02-08T11:42:53;2.40;66.40
2867;DHT22;1441;48.886;8.728;2023-02-08T11:45:23;2.30;66.60
2867;DHT22;1441;48.886;8.728;2023-02-08T11:47:50;2.40;67.00
2867;DHT22;1441;48.886;8.728;2023-02-08T11:50:30;2.40;66.60
2867;DHT22;1441;48.886;8.728;2023-02-08T11:53:16;2.40;66.60
2867;DHT22;1441;48.886;8.728;2023-02-08T11:55:45;2.40;67.00
2867;DHT22;1441;48.886;8.728;2023-02-08T11:58:25;2.50;66.90
2867;DHT22;1441;48.886;8.728;2023-02-08T12:01:04;2.60;66.30
2867;DHT22;1441;48.886;8.728;2023-02-08T12:03:38;2.60;66.30
2867;DHT22;1441;48.886;8.728;2023-02-08T12:11:45;2.70;66.00
2867;DHT22;1441;48.886;8.728;2023-02-08T12:14:40;2.70;66.30
2867;DHT22;1441;48.886;8.728;2023-02-08T12:50:13;2.90;65.70
2867;DHT22;1441;48.886;8.728;2023-02-08T12:52:48;3.00;65.60
2867;DHT22;1441;48.886;8.728;2023-02-08T12:55:24;3.10;65.70
2867;DHT22;1441;48.886;8.728;2023-02-08T12:57:57;3.10;65.30
2867;DHT22;1441;48.886;8.728;2023-02-08T13:00:29;3.10;65.70
2867;DHT22;1441;48.886;8.728;2023-02-08T13:05:46;3.30;65.60
2867;DHT22;1441;48.886;8.728;2023-02-08T13:08:31;3.50;65.70
2867;DHT22;1441;48.886;8.728;2023-02-08T13:11:05;3.40;65.20
2867;DHT22;1441;48.886;8.728;2023-02-08T13:13:35;3.50;65.80
2867;DHT22;1441;48.886;8.728;2023-02-08T13:16:09;3.50;65.30
2867;DHT22;1441;48.886;8.728;2023-02-08T13:21:47;3.80;65.60
2867;DHT22;1441;48.886;8.728;2023-02-08T13:24:38;4.00;65.40
2867;DHT22;1441;48.886;8.728;2023-02-08T13:27:05;4.20;65.40
2867;DHT22;1441;48.886;8.728;2023-02-08T13:29:36;4.30;65.00
2867;DHT22;1441;48.886;8.728;2023-02-08T13:32:07;4.30;65.00
2867;DHT22;1441;48.886;8.728;2023-02-08T13:34:41;4.40;64.60
2867;DHT22;1441;48.886;8.728;2023-02-08T13:37:22;4.40;64.30
2867;DHT22;1441;48.886;8.728;2023-02-08T13:39:56;4.30;63.60
2867;DHT22;1441;48.886;8.728;2023-02-08T13:42:39;4.30;64.20
2867;DHT22;1441;48.886;8.728;2023-02-08T13:45:09;4.40;64.20
2867;DHT22;1441;48.886;8.728;2023-02-08T13:47:49;4.50;64.70
2867;DHT22;1441;48.886;8.728;2023-02-08T13:50:48;4.70;63.90
2867;DHT22;1441;48.886;8.728;2023-02-08T13:53:17;4.70;63.30
2867;DHT22;1441;48.886;8.728;2023-02-08T13:55:58;4.60;63.00
2867;DHT22;1441;48.886;8.728;2023-02-08T13:58:36;4.70;63.70
2867;DHT22;1441;48.886;8.728;2023-02-08T14:03:37;4.80;63.80
2867;DHT22;1441;48.886;8.728;2023-02-08T14:06:23;4.80;63.10
2867;DHT22;1441;48.886;8.728;2023-02-08T14:08:57;4.90;63.50
2867;DHT22;1441;48.886;8.728;2023-02-08T14:11:35;4.90;63.20
2867;DHT22;1441;48.886;8.728;2023-02-08T14:14:14;5.00;62.70
2867;DHT22;1441;48.886;8.728;2023-02-08T14:16:43;5.00;62.60
2867;DHT22;1441;48.886;8.728;2023-02-08T14:21:44;4.90;62.40
2867;DHT22;1441;48.886;8.728;2023-02-08T14:27:28;5.00;62.10
2867;DHT22;1441;48.886;8.728;2023-02-08T14:30:02;5.00;62.30
2867;DHT22;1441;48.886;8.728;2023-02-08T14:32:31;5.00;62.30
2867;DHT22;1441;48.886;8.728;2023-02-08T14:35:07;5.10;62.00
2867;DHT22;1441;48.886;8.728;2023-02-08T14:37:34;5.10;61.50
2867;DHT22;1441;48.886;8.728;2023-02-08T14:40:33;5.00;62.00
2867;DHT22;1441;48.886;8.728;2023-02-08T14:45:37;5.00;62.00
2867;DHT22;1441;48.886;8.728;2023-02-08T14:48:20;5.00;61.90
2867;DHT22;1441;48.886;8.728;2023-02-08T14:56:20;5.10;61.30
2867;DHT22;1441;48.886;8.728;2023-02-08T15:01:21;4.90;60.90
2867;DHT22;1441;48.886;8.728;2023-02-08T15:03:52;4.90;61.20
2867;DHT22;1441;48.886;8.728;2023-02-08T15:09:04;5.10;61.70
2867;DHT22;1441;48.886;8.728;2023-02-08T15:11:32;5.10;61.90
2867;DHT22;1441;48.886;8.728;2023-02-08T15:14:01;5.10;61.40
2867;DHT22;1441;48.886;8.728;2023-02-08T15:16:39;5.10;61.50
2867;DHT22;1441;48.886;8.728;2023-02-08T15:19:07;5.00;61.20
2867;DHT22;1441;48.886;8.728;2023-02-08T15:21:33;5.10;61.40
2867;DHT22;1441;48.886;8.728;2023-02-08T15:24:22;4.70;60.40
2867;DHT22;1441;48.886;8.728;2023-02-08T15:26:52;4.60;61.10
2867;DHT22;1441;48.886;8.728;2023-02-08T15:29:24;4.50;61.30
2867;DHT22;1441;48.886;8.728;2023-02-08T15:31:51;4.40;61.60
2867;DHT22;1441;48.886;8.728;2023-02-08T15:34:20;4.40;62.70
2867;DHT22;1441;48.886;8.728;2023-02-08T15:36:54;4.30;62.90
2867;DHT22;1441;48.886;8.728;2023-02-08T15:39:31;4.30;62.80
2867;DHT22;1441;48.886;8.728;2023-02-08T15:41:58;4.10;62.40
2867;DHT22;1441;48.886;8.728;2023-02-08T15:44:26;4.00;63.00
2867;DHT22;1441;48.886;8.728;2023-02-08T15:47:03;3.90;63.00
2867;DHT22;1441;48.886;8.728;2023-02-08T15:49:39;3.80;63.70
2867;DHT22;1441;48.886;8.728;2023-02-08T15:52:06;3.70;64.20
2867;DHT22;1441;48.886;8.728;2023-02-08T15:54:32;3.70;64.10
2867;DHT22;1441;48.886;8.728;2023-02-08T15:59:43;3.50;65.00
2867;DHT22;1441;48.886;8.728;2023-02-08T16:04:46;3.20;65.20
2867;DHT22;1441;48.886;8.728;2023-02-08T16:07:31;3.20;65.80
2867;DHT22;1441;48.886;8.728;2023-02-08T16:09:58;3.10;66.20
2867;DHT22;1441;48.886;8.728;2023-02-08T16:12:26;3.00;66.60
2867;DHT22;1441;48.886;8.728;2023-02-08T16:14:53;2.90;67.30
2867;DHT22;1441;48.886;8.728;2023-02-08T16:17:43;2.90;67.80
2867;DHT22;1441;48.886;8.728;2023-02-08T16:20:29;2.90;68.20
2867;DHT22;1441;48.886;8.728;2023-02-08T16:23:25;2.80;68.60
2867;DHT22;1441;48.886;8.728;2023-02-08T16:25:51;2.80;68.80
2867;DHT22;1441;48.886;8.728;2023-02-08T16:28:36;2.70;69.30
2867;DHT22;1441;48.886;8.728;2023-02-08T16:31:04;2.60;69.80
2867;DHT22;1441;48.886;8.728;2023-02-08T16:33:31;2.60;70.30
2867;DHT22;1441;48.886;8.728;2023-02-08T16:35:57;2.50;70.60
2867;DHT22;1441;48.886;8.728;2023-02-08T16:38:29;2.40;70.80
2867;DHT22;1441;48.886;8.728;2023-02-08T16:40:57;2.30;71.20
2867;DHT22;1441;48.886;8.728;2023-02-08T16:43:37;2.20;71.40
2867;DHT22;1441;48.886;8.728;2023-02-08T16:48:40;2.10;72.00
2867;DHT22;1441;48.886;8.728;2023-02-08T16:51:11;2.10;72.20
2867;DHT22;1441;48.886;8.728;2023-02-08T16:53:39;2.10;72.30
2867;DHT22;1441;48.886;8.728;2023-02-08T16:56:05;2.00;72.50
2867;DHT22;1441;48.886;8.728;2023-02-08T16:58:32;2.00;73.10
2867;DHT22;1441;48.886;8.728;2023-02-08T17:00:57;2.00;73.20
2867;DHT22;1441;48.886;8.728;2023-02-08T17:03:24;1.90;73.40
2867;DHT22;1441;48.886;8.728;2023-02-08T17:05:50;1.90;73.70
2867;DHT22;1441;48.886;8.728;2023-02-08T17:08:18;1.80;73.90
2867;DHT22;1441;48.886;8.728;2023-02-08T17:10:44;1.90;74.10
2867;DHT22;1441;48.886;8.728;2023-02-08T17:13:10;1.80;74.10
2867;DHT22;1441;48.886;8.728;2023-02-08T17:15:36;1.70;74.50
2867;DHT22;1441;48.886;8.728;2023-02-08T17:18:03;1.70;74.50
2867;DHT22;1441;48.886;8.728;2023-02-08T17:20:31;1.60;74.60
2867;DHT22;1441;48.886;8.728;2023-02-08T17:22:58;1.50;75.30
2867;DHT22;1441;48.886;8.728;2023-02-08T17:25:25;1.50;75.40
2867;DHT22;1441;48.886;8.728;2023-02-08T17:28:01;1.50;75.50
2867;DHT22;1441;48.886;8.728;2023-02-08T17:30:31;1.50;75.60
2867;DHT22;1441;48.886;8.728;2023-02-08T17:32:56;1.40;75.70
2867;DHT22;1441;48.886;8.728;2023-02-08T17:35:27;1.40;75.90
2867;DHT22;1441;48.886;8.728;2023-02-08T17:37:54;1.40;76.00
2867;DHT22;1441;48.886;8.728;2023-02-08T17:40:25;1.30;76.00
2867;DHT22;1441;48.886;8.728;2023-02-08T17:42:52;1.40;76.10
2867;DHT22;1441;48.886;8.728;2023-02-08T17:45:18;1.40;76.10
2867;DHT22;1441;48.886;8.728;2023-02-08T17:47:44;1.40;76.00
2867;DHT22;1441;48.886;8.728;2023-02-08T17:50:12;1.30;76.10
2867;DHT22;1441;48.886;8.728;2023-02-08T17:52:39;1.10;76.10
2867;DHT22;1441;48.886;8.728;2023-02-08T17:55:07;1.10;76.20
2867;DHT22;1441;48.886;8.728;2023-02-08T17:57:35;1.10;76.50
2867;DHT22;1441;48.886;8.728;2023-02-08T18:00:03;1.10;76.50
2867;DHT22;1441;48.886;8.728;2023-02-08T18:02:29;1.10;76.80
2867;DHT22;1441;48.886;8.728;2023-02-08T18:04:54;1.00;77.00
2867;DHT22;1441;48.886;8.728;2023-02-08T18:07:20;1.00;77.00
2867;DHT22;1441;48.886;8.728;2023-02-08T18:09:46;0.90;77.20
2867;DHT22;1441;48.886;8.728;2023-02-08T18:12:11;0.80;77.70
2867;DHT22;1441;48.886;8.728;2023-02-08T18:14:38;0.80;78.00
2867;DHT22;1441;48.886;8.728;2023-02-08T18:17:04;0.80;78.20
2867;DHT22;1441;48.886;8.728;2023-02-08T18:19:30;0.80;78.20
2867;DHT22;1441;48.886;8.728;2023-02-08T18:21:56;0.80;78.40
2867;DHT22;1441;48.886;8.728;2023-02-08T18:24:26;0.70;78.80
2867;DHT22;1441;48.886;8.728;2023-02-08T18:26:51;0.70;79.20
2867;DHT22;1441;48.886;8.728;2023-02-08T18:29:17;0.70;79.20
2867;DHT22;1441;48.886;8.728;2023-02-08T18:31:43;0.60;79.50
2867;DHT22;1441;48.886;8.728;2023-02-08T18:34:09;0.60;79.60
2867;DHT22;1441;48.886;8.728;2023-02-08T18:36:35;0.70;79.40
2867;DHT22;1441;48.886;8.728;2023-02-08T18:39:01;0.70;78.90
2867;DHT22;1441;48.886;8.728;2023-02-08T18:41:28;0.60;79.50
2867;DHT22;1441;48.886;8.728;2023-02-08T18:43:55;0.70;79.40
2867;DHT22;1441;48.886;8.728;2023-02-08T18:46:23;0.60;79.30
2867;DHT22;1441;48.886;8.728;2023-02-08T18:48:50;0.70;79.40
2867;DHT22;1441;48.886;8.728;2023-02-08T18:51:17;0.60;79.40
2867;DHT22;1441;48.886;8.728;2023-02-08T18:53:46;0.60;79.50
2867;DHT22;1441;48.886;8.728;2023-02-08T18:56:12;0.60;79.40